sensor_id;sensor_type;location;lat;lon;timestamp;pressure;altitude;pressure_sealevel;temperature;humidity
72587;BME280;60621;49.576;11.024;2022-08-11T00:00:41;98905.81;;;20.16;40.34
72587;BME280;60621;49.576;11.024;2022-08-11T00:01:55;98909.00;;;20.08;40.64
72587;BME280;60621;49.576;11.024;2022-08-11T00:03:03;98911.63;;;20.11;40.47
72587;BME280;60621;49.576;11.024;2022-08-11T00:04:05;98904.81;;;20.07;40.63
72587;BME280;60621;49.576;11.024;2022-08-11T00:05:13;98908.72;;;19.99;40.94
72587;BME280;60621;49.576;11.024;2022-08-11T00:06:26;98909.44;;;20.03;40.64
72587;BME280;60621;49.576;11.024;2022-08-11T00:07:29;98907.28;;;19.94;40.76
72587;BME280;60621;49.576;11.024;2022-08-11T00:08:31;98910.84;;;19.84;40.99
72587;BME280;60621;49.576;11.024;2022-08-11T00:09:36;98907.81;;;19.82;41.17
72587;BME280;60621;49.576;11.024;2022-08-11T00:10:40;98906.31;;;19.81;41.30
72587;BME280;60621;49.576;11.024;2022-08-11T00:11:52;98907.84;;;19.78;41.41
72587;BME280;60621;49.576;11.024;2022-08-11T00:13:03;98902.66;;;19.64;41.66
72587;BME280;60621;49.576;11.024;2022-08-11T00:14:13;98909.16;;;19.66;41.65
72587;BME280;60621;49.576;11.024;2022-08-11T00:15:16;98903.53;;;19.50;42.06
72587;BME280;60621;49.576;11.024;2022-08-11T00:16:21;98905.88;;;19.48;42.23
72587;BME280;60621;49.576;11.024;2022-08-11T00:17:27;98909.31;;;19.49;42.18
72587;BME280;60621;49.576;11.024;2022-08-11T00:18:40;98904.41;;;19.43;42.39
72587;BME280;60621;49.576;11.024;2022-08-11T00:19:44;98903.59;;;19.47;42.45
72587;BME280;60621;49.576;11.024;2022-08-11T00:21:07;98903.47;;;19.57;41.92
72587;BME280;60621;49.576;11.024;2022-08-11T00:22:11;98907.66;;;19.58;42.04
72587;BME280;60621;49.576;11.024;2022-08-11T00:23:19;98901.56;;;19.58;42.08
72587;BME280;60621;49.576;11.024;2022-08-11T00:24:21;98909.19;;;19.63;41.89
72587;BME280;60621;49.576;11.024;2022-08-11T00:25:24;98906.16;;;19.61;41.95
72587;BME280;60621;49.576;11.024;2022-08-11T00:26:27;98903.06;;;19.59;42.16
72587;BME280;60621;49.576;11.024;2022-08-11T00:27:36;98910.34;;;19.58;42.30
72587;BME280;60621;49.576;11.024;2022-08-11T00:28:39;98902.34;;;19.55;42.32
72587;BME280;60621;49.576;11.024;2022-08-11T00:29:51;98906.97;;;19.51;42.34
72587;BME280;60621;49.576;11.024;2022-08-11T00:30:55;98908.56;;;19.48;42.14
72587;BME280;60621;49.576;11.024;2022-08-11T00:32:02;98910.06;;;19.49;42.29
72587;BME280;60621;49.576;11.024;2022-08-11T00:33:04;98906.22;;;19.50;42.72
72587;BME280;60621;49.576;11.024;2022-08-11T00:34:10;98901.25;;;19.52;42.42
72587;BME280;60621;49.576;11.024;2022-08-11T00:35:14;98908.91;;;19.50;42.49
72587;BME280;60621;49.576;11.024;2022-08-11T00:36:44;98911.09;;;19.59;42.20
72587;BME280;60621;49.576;11.024;2022-08-11T00:37:49;98906.00;;;19.75;41.81
72587;BME280;60621;49.576;11.024;2022-08-11T00:38:54;98907.94;;;19.71;41.78
72587;BME280;60621;49.576;11.024;2022-08-11T00:40:04;98911.81;;;19.66;42.00
72587;BME280;60621;49.576;11.024;2022-08-11T00:42:47;98908.53;;;19.52;42.42
72587;BME280;60621;49.576;11.024;2022-08-11T00:44:22;98903.59;;;19.47;42.76
72587;BME280;60621;49.576;11.024;2022-08-11T00:45:38;98906.16;;;19.61;42.26
72587;BME280;60621;49.576;11.024;2022-08-11T00:48:02;98906.53;;;19.56;42.58
72587;BME280;60621;49.576;11.024;2022-08-11T00:51:58;98905.28;;;19.71;42.35
72587;BME280;60621;49.576;11.024;2022-08-11T00:56:04;98906.50;;;19.63;42.44
72587;BME280;60621;49.576;11.024;2022-08-11T01:11:15;98891.50;;;19.31;43.27
72587;BME280;60621;49.576;11.024;2022-08-11T01:18:25;98903.50;;;19.16;43.82
72587;BME280;60621;49.576;11.024;2022-08-11T01:21:55;98897.75;;;19.17;43.90
72587;BME280;60621;49.576;11.024;2022-08-11T01:27:21;98895.91;;;19.14;44.09
72587;BME280;60621;49.576;11.024;2022-08-11T01:28:52;98900.09;;;19.15;43.97
72587;BME280;60621;49.576;11.024;2022-08-11T01:31:55;98899.38;;;19.08;44.44
72587;BME280;60621;49.576;11.024;2022-08-11T01:33:36;98898.72;;;19.00;44.31
72587;BME280;60621;49.576;11.024;2022-08-11T01:42:06;98895.94;;;19.11;44.23
72587;BME280;60621;49.576;11.024;2022-08-11T01:45:57;98892.63;;;18.96;44.58
72587;BME280;60621;49.576;11.024;2022-08-11T01:49:14;98894.72;;;19.19;43.89
72587;BME280;60621;49.576;11.024;2022-08-11T01:52:41;98889.56;;;18.94;44.74
72587;BME280;60621;49.576;11.024;2022-08-11T01:55:27;98888.09;;;18.89;45.13
72587;BME280;60621;49.576;11.024;2022-08-11T01:56:44;98892.31;;;18.90;45.15
72587;BME280;60621;49.576;11.024;2022-08-11T01:58:04;98888.06;;;18.93;45.24
72587;BME280;60621;49.576;11.024;2022-08-11T01:59:28;98892.31;;;18.90;45.08
72587;BME280;60621;49.576;11.024;2022-08-11T02:00:49;98886.97;;;18.87;45.13
72587;BME280;60621;49.576;11.024;2022-08-11T02:02:26;98884.72;;;18.85;45.22
72587;BME280;60621;49.576;11.024;2022-08-11T02:03:56;98880.47;;;18.88;45.25
72587;BME280;60621;49.576;11.024;2022-08-11T02:10:53;98887.50;;;18.67;45.92
72587;BME280;60621;49.576;11.024;2022-08-11T02:12:48;98888.25;;;18.72;45.91
72587;BME280;60621;49.576;11.024;2022-08-11T02:15:26;98893.59;;;18.72;45.89
72587;BME280;60621;49.576;11.024;2022-08-11T02:16:43;98885.53;;;18.75;45.85
72587;BME280;60621;49.576;11.024;2022-08-11T02:18:12;98895.47;;;18.75;45.86
72587;BME280;60621;49.576;11.024;2022-08-11T02:19:27;98889.38;;;18.74;45.96
72587;BME280;60621;49.576;11.024;2022-08-11T02:20:56;98890.13;;;18.75;45.83
72587;BME280;60621;49.576;11.024;2022-08-11T02:24:16;98890.97;;;18.61;46.06
72587;BME280;60621;49.576;11.024;2022-08-11T02:25:40;98894.00;;;18.63;46.02
72587;BME280;60621;49.576;11.024;2022-08-11T02:26:53;98880.22;;;18.68;46.24
72587;BME280;60621;49.576;11.024;2022-08-11T02:28:17;98887.13;;;18.69;46.31
72587;BME280;60621;49.576;11.024;2022-08-11T02:29:31;98879.84;;;18.70;46.04
72587;BME280;60621;49.576;11.024;2022-08-11T02:30:40;98883.25;;;18.74;46.03
72587;BME280;60621;49.576;11.024;2022-08-11T02:32:28;98876.06;;;18.71;45.58
72587;BME280;60621;49.576;11.024;2022-08-11T02:34:03;98881.00;;;18.68;46.15
72587;BME280;60621;49.576;11.024;2022-08-11T02:36:20;98881.41;;;18.63;46.16
72587;BME280;60621;49.576;11.024;2022-08-11T02:39:45;98876.91;;;18.57;46.36
72587;BME280;60621;49.576;11.024;2022-08-11T02:41:14;98873.09;;;18.54;46.62
72587;BME280;60621;49.576;11.024;2022-08-11T02:42:55;98879.25;;;18.48;46.74
72587;BME280;60621;49.576;11.024;2022-08-11T02:45:47;98884.22;;;18.46;46.80
72587;BME280;60621;49.576;11.024;2022-08-11T02:46:57;98881.53;;;18.46;46.90
72587;BME280;60621;49.576;11.024;2022-08-11T02:49:44;98883.47;;;18.41;47.12
72587;BME280;60621;49.576;11.024;2022-08-11T02:51:23;98886.53;;;18.43;46.84
72587;BME280;60621;49.576;11.024;2022-08-11T02:54:01;98888.47;;;18.39;47.08
72587;BME280;60621;49.576;11.024;2022-08-11T02:56:53;98882.78;;;18.30;47.32
72587;BME280;60621;49.576;11.024;2022-08-11T02:58:21;98889.28;;;18.29;47.58
72587;BME280;60621;49.576;11.024;2022-08-11T03:01:20;98887.81;;;18.21;47.84
72587;BME280;60621;49.576;11.024;2022-08-11T03:04:13;98898.06;;;18.30;47.50
72587;BME280;60621;49.576;11.024;2022-08-11T03:05:44;98885.47;;;18.30;47.59
72587;BME280;60621;49.576;11.024;2022-08-11T03:07:15;98888.56;;;18.22;47.69
72587;BME280;60621;49.576;11.024;2022-08-11T03:09:59;98892.47;;;18.06;47.99
72587;BME280;60621;49.576;11.024;2022-08-11T03:11:16;98888.63;;;18.07;47.99
72587;BME280;60621;49.576;11.024;2022-08-11T03:14:41;98883.78;;;17.91;48.54
72587;BME280;60621;49.576;11.024;2022-08-11T03:20:40;98893.75;;;17.80;48.81
72587;BME280;60621;49.576;11.024;2022-08-11T03:21:51;98887.63;;;17.73;49.07
72587;BME280;60621;49.576;11.024;2022-08-11T03:23:16;98896.03;;;17.67;49.33
72587;BME280;60621;49.576;11.024;2022-08-11T03:24:33;98892.59;;;17.74;49.24
72587;BME280;60621;49.576;11.024;2022-08-11T03:25:48;98894.88;;;17.72;49.32
72587;BME280;60621;49.576;11.024;2022-08-11T03:28:10;98892.59;;;17.74;49.37
72587;BME280;60621;49.576;11.024;2022-08-11T03:30:47;98892.63;;;17.67;49.53
72587;BME280;60621;49.576;11.024;2022-08-11T03:32:01;98889.19;;;17.66;49.39
72587;BME280;60621;49.576;11.024;2022-08-11T03:34:32;98900.28;;;17.58;49.88
72587;BME280;60621;49.576;11.024;2022-08-11T03:35:58;98890.34;;;17.58;49.97
72587;BME280;60621;49.576;11.024;2022-08-11T03:37:21;98889.97;;;17.60;49.93
72587;BME280;60621;49.576;11.024;2022-08-11T03:38:58;98894.91;;;17.65;49.72
72587;BME280;60621;49.576;11.024;2022-08-11T03:43:23;98892.66;;;17.53;50.15
72587;BME280;60621;49.576;11.024;2022-08-11T03:46:09;98890.00;;;17.49;50.17
72587;BME280;60621;49.576;11.024;2022-08-11T03:47:33;98891.53;;;17.47;50.30
72587;BME280;60621;49.576;11.024;2022-08-11T03:49:17;98888.50;;;17.48;50.44
72587;BME280;60621;49.576;11.024;2022-08-11T03:56:12;98887.38;;;17.35;51.17
72587;BME280;60621;49.576;11.024;2022-08-11T04:12:13;98885.13;;;17.19;51.57
72587;BME280;60621;49.576;11.024;2022-08-11T04:14:04;98885.88;;;17.12;51.96
72587;BME280;60621;49.576;11.024;2022-08-11T04:15:36;98884.75;;;17.17;51.87
72587;BME280;60621;49.576;11.024;2022-08-11T04:19:55;98886.63;;;17.31;51.32
72587;BME280;60621;49.576;11.024;2022-08-11T04:25:15;98894.25;;;17.22;52.02
72587;BME280;60621;49.576;11.024;2022-08-11T04:26:44;98893.84;;;17.23;52.17
72587;BME280;60621;49.576;11.024;2022-08-11T04:29:45;98893.06;;;17.37;51.77
72587;BME280;60621;49.576;11.024;2022-08-11T04:33:29;98890.78;;;17.32;51.90
72587;BME280;60621;49.576;11.024;2022-08-11T04:34:43;98883.56;;;17.32;51.93
72587;BME280;60621;49.576;11.024;2022-08-11T04:38:44;98891.56;;;17.36;51.84
72587;BME280;60621;49.576;11.024;2022-08-11T04:40:05;98886.63;;;17.31;51.99
72587;BME280;60621;49.576;11.024;2022-08-11T04:45:24;98888.88;;;17.43;51.90
72587;BME280;60621;49.576;11.024;2022-08-11T04:46:56;98892.66;;;17.42;52.17
72587;BME280;60621;49.576;11.024;2022-08-11T04:48:08;98891.91;;;17.45;52.12
72587;BME280;60621;49.576;11.024;2022-08-11T04:53:25;98898.75;;;17.57;52.00
72587;BME280;60621;49.576;11.024;2022-08-11T04:56:39;98900.63;;;17.60;51.91
72587;BME280;60621;49.576;11.024;2022-08-11T04:58:18;98903.28;;;17.67;51.80
72587;BME280;60621;49.576;11.024;2022-08-11T05:03:14;98905.97;;;17.60;52.31
72587;BME280;60621;49.576;11.024;2022-08-11T05:06:32;98907.09;;;17.77;51.90
72587;BME280;60621;49.576;11.024;2022-08-11T05:09:20;98916.63;;;17.78;52.03
72587;BME280;60621;49.576;11.024;2022-08-11T05:12:09;98917.72;;;17.84;51.83
72587;BME280;60621;49.576;11.024;2022-08-11T05:13:36;98918.47;;;17.84;51.67
72587;BME280;60621;49.576;11.024;2022-08-11T05:15:02;98924.97;;;17.87;52.03
72587;BME280;60621;49.576;11.024;2022-08-11T05:16:27;98920.38;;;17.91;52.11
72587;BME280;60621;49.576;11.024;2022-08-11T05:18:09;98927.97;;;17.96;51.97
72587;BME280;60621;49.576;11.024;2022-08-11T05:19:33;98926.03;;;18.04;51.55
72587;BME280;60621;49.576;11.024;2022-08-11T05:20:56;98924.50;;;18.10;51.38
72587;BME280;60621;49.576;11.024;2022-08-11T05:22:27;98921.00;;;18.24;50.54
72587;BME280;60621;49.576;11.024;2022-08-11T05:23:55;98921.31;;;18.33;50.78
72587;BME280;60621;49.576;11.024;2022-08-11T05:25:19;98922.84;;;18.34;50.50
72587;BME280;60621;49.576;11.024;2022-08-11T05:27:02;98915.09;;;18.50;50.30
72587;BME280;60621;49.576;11.024;2022-08-11T05:28:41;98929.13;;;18.68;49.15
72587;BME280;60621;49.576;11.024;2022-08-11T05:30:28;98925.25;;;18.73;49.11
72587;BME280;60621;49.576;11.024;2022-08-11T05:31:55;98927.19;;;18.73;49.18
72587;BME280;60621;49.576;11.024;2022-08-11T05:33:32;98922.19;;;18.75;49.20
72587;BME280;60621;49.576;11.024;2022-08-11T05:34:53;98931.34;;;18.77;49.22
72587;BME280;60621;49.576;11.024;2022-08-11T05:36:07;98929.00;;;18.86;48.81
72587;BME280;60621;49.576;11.024;2022-08-11T05:37:19;98929.00;;;18.83;48.97
72587;BME280;60621;49.576;11.024;2022-08-11T05:38:33;98932.78;;;18.89;48.78
72587;BME280;60621;49.576;11.024;2022-08-11T05:40:05;98928.19;;;18.89;48.88
72587;BME280;60621;49.576;11.024;2022-08-11T05:41:28;98931.16;;;18.99;48.76
72587;BME280;60621;49.576;11.024;2022-08-11T05:42:55;98933.38;;;19.07;48.41
72587;BME280;60621;49.576;11.024;2022-08-11T05:44:18;98934.13;;;19.11;48.44
72587;BME280;60621;49.576;11.024;2022-08-11T05:45:40;98933.69;;;19.16;48.23
72587;BME280;60621;49.576;11.024;2022-08-11T05:47:06;98937.81;;;19.25;48.07
72587;BME280;60621;49.576;11.024;2022-08-11T05:48:35;98935.78;;;19.39;47.51
72587;BME280;60621;49.576;11.024;2022-08-11T05:49:55;98936.50;;;19.43;47.56
72587;BME280;60621;49.576;11.024;2022-08-11T05:51:17;98941.88;;;19.40;47.91
72587;BME280;60621;49.576;11.024;2022-08-11T05:52:37;98939.91;;;19.48;47.48
72587;BME280;60621;49.576;11.024;2022-08-11T05:54:00;98940.56;;;19.55;47.21
72587;BME280;60621;49.576;11.024;2022-08-11T05:55:30;98943.63;;;19.57;47.17
72587;BME280;60621;49.576;11.024;2022-08-11T05:57:03;98935.94;;;19.59;47.16
72587;BME280;60621;49.576;11.024;2022-08-11T05:58:07;98941.53;;;19.76;46.77
72587;BME280;60621;49.576;11.024;2022-08-11T05:59:18;98942.19;;;19.83;46.69
72587;BME280;60621;49.576;11.024;2022-08-11T06:00:21;98944.50;;;19.85;46.66
72587;BME280;60621;49.576;11.024;2022-08-11T06:01:29;98934.88;;;19.87;46.46
72587;BME280;60621;49.576;11.024;2022-08-11T06:02:32;98939.34;;;19.98;46.13
72587;BME280;60621;49.576;11.024;2022-08-11T06:03:34;98936.75;;;19.94;46.11
72587;BME280;60621;49.576;11.024;2022-08-11T06:04:59;98943.66;;;19.91;46.19
72587;BME280;60621;49.576;11.024;2022-08-11T06:06:07;98939.84;;;19.89;46.30
72587;BME280;60621;49.576;11.024;2022-08-11T06:07:12;98941.00;;;19.88;46.52
72587;BME280;60621;49.576;11.024;2022-08-11T06:08:26;98942.47;;;19.92;46.66
72587;BME280;60621;49.576;11.024;2022-08-11T06:09:33;98946.56;;;20.04;45.97
72587;BME280;60621;49.576;11.024;2022-08-11T06:10:37;98942.31;;;20.07;46.26
72587;BME280;60621;49.576;11.024;2022-08-11T06:11:41;98948.38;;;20.11;46.35
72587;BME280;60621;49.576;11.024;2022-08-11T06:12:51;98946.56;;;20.31;45.56
72587;BME280;60621;49.576;11.024;2022-08-11T06:13:54;98943.50;;;20.33;45.70
72587;BME280;60621;49.576;11.024;2022-08-11T06:15:02;98949.97;;;20.35;45.79
72587;BME280;60621;49.576;11.024;2022-08-11T06:16:05;98946.47;;;20.38;45.48
72587;BME280;60621;49.576;11.024;2022-08-11T06:17:07;98941.84;;;20.42;45.13
72587;BME280;60621;49.576;11.024;2022-08-11T06:18:11;98942.59;;;20.43;45.22
72587;BME280;60621;49.576;11.024;2022-08-11T06:19:14;98943.00;;;20.41;45.09
72587;BME280;60621;49.576;11.024;2022-08-11T06:20:17;98936.47;;;20.42;45.20
72587;BME280;60621;49.576;11.024;2022-08-11T06:21:20;98943.69;;;20.45;45.35
72587;BME280;60621;49.576;11.024;2022-08-11T06:22:22;98944.44;;;20.46;45.16
72587;BME280;60621;49.576;11.024;2022-08-11T06:23:31;98952.09;;;20.51;45.16
72587;BME280;60621;49.576;11.024;2022-08-11T06:24:40;98940.19;;;20.52;44.88
72587;BME280;60621;49.576;11.024;2022-08-11T06:25:42;98943.19;;;20.58;45.12
72587;BME280;60621;49.576;11.024;2022-08-11T06:26:50;98943.13;;;20.61;44.66
72587;BME280;60621;49.576;11.024;2022-08-11T06:28:12;98941.16;;;20.65;44.64
72587;BME280;60621;49.576;11.024;2022-08-11T06:29:22;98944.47;;;20.73;44.68
72587;BME280;60621;49.576;11.024;2022-08-11T06:30:45;98949.41;;;20.75;44.38
72587;BME280;60621;49.576;11.024;2022-08-11T06:31:59;98938.53;;;20.85;44.00
72587;BME280;60621;49.576;11.024;2022-08-11T06:33:02;98944.94;;;20.91;44.03
72587;BME280;60621;49.576;11.024;2022-08-11T06:34:11;98938.03;;;20.94;44.25
72587;BME280;60621;49.576;11.024;2022-08-11T06:35:47;98941.28;;;21.05;44.00
72587;BME280;60621;49.576;11.024;2022-08-11T06:37:14;98938.03;;;21.17;43.25
72587;BME280;60621;49.576;11.024;2022-08-11T06:40:52;98937.31;;;21.37;43.44
72587;BME280;60621;49.576;11.024;2022-08-11T06:42:33;98929.59;;;21.39;43.30
72587;BME280;60621;49.576;11.024;2022-08-11T06:43:51;98932.56;;;21.44;42.54
72587;BME280;60621;49.576;11.024;2022-08-11T06:45:15;98929.56;;;21.42;42.84
72587;BME280;60621;49.576;11.024;2022-08-11T06:46:29;98930.16;;;21.50;43.00
72587;BME280;60621;49.576;11.024;2022-08-11T06:47:31;98933.97;;;21.53;42.45
72587;BME280;60621;49.576;11.024;2022-08-11T06:48:34;98933.00;;;21.63;42.02
72587;BME280;60621;49.576;11.024;2022-08-11T06:49:42;98936.31;;;21.70;41.99
72587;BME280;60621;49.576;11.024;2022-08-11T06:51:04;98931.28;;;21.72;41.82
72587;BME280;60621;49.576;11.024;2022-08-11T06:52:12;98930.72;;;21.81;41.91
72587;BME280;60621;49.576;11.024;2022-08-11T06:53:43;98934.31;;;21.75;41.86
72587;BME280;60621;49.576;11.024;2022-08-11T06:55:10;98930.31;;;21.83;41.83
72587;BME280;60621;49.576;11.024;2022-08-11T06:56:35;98931.63;;;21.94;41.49
72587;BME280;60621;49.576;11.024;2022-08-11T06:58:20;98934.28;;;22.14;40.89
72587;BME280;60621;49.576;11.024;2022-08-11T06:59:43;98935.91;;;22.28;40.17
72587;BME280;60621;49.576;11.024;2022-08-11T07:01:10;98939.88;;;22.40;39.96
72587;BME280;60621;49.576;11.024;2022-08-11T07:02:24;98935.69;;;22.39;40.38
72587;BME280;60621;49.576;11.024;2022-08-11T07:03:37;98940.91;;;22.46;40.98
72587;BME280;60621;49.576;11.024;2022-08-11T07:04:59;98933.09;;;22.52;40.71
72587;BME280;60621;49.576;11.024;2022-08-11T07:11:59;98936.78;;;23.07;38.71
72587;BME280;60621;49.576;11.024;2022-08-11T07:13:20;98934.97;;;23.04;38.64
72587;BME280;60621;49.576;11.024;2022-08-11T07:14:50;98936.03;;;23.06;38.79
72587;BME280;60621;49.576;11.024;2022-08-11T07:16:14;98936.09;;;23.19;38.52
72587;BME280;60621;49.576;11.024;2022-08-11T07:17:23;98927.75;;;23.30;38.57
72587;BME280;60621;49.576;11.024;2022-08-11T07:18:29;98929.97;;;23.47;37.04
72587;BME280;60621;49.576;11.024;2022-08-11T07:19:56;98935.44;;;23.44;37.14
72587;BME280;60621;49.576;11.024;2022-08-11T07:21:27;98934.16;;;23.65;37.22
72587;BME280;60621;49.576;11.024;2022-08-11T07:23:07;98934.03;;;23.68;37.10
72587;BME280;60621;49.576;11.024;2022-08-11T07:24:35;98931.69;;;23.70;36.64
72587;BME280;60621;49.576;11.024;2022-08-11T07:26:03;98931.97;;;23.60;36.82
72587;BME280;60621;49.576;11.024;2022-08-11T07:27:27;98934.53;;;23.63;37.27
72587;BME280;60621;49.576;11.024;2022-08-11T07:28:49;98929.66;;;23.74;36.55
72587;BME280;60621;49.576;11.024;2022-08-11T07:30:02;98930.63;;;23.81;36.42
72587;BME280;60621;49.576;11.024;2022-08-11T07:31:08;98923.00;;;23.79;36.13
72587;BME280;60621;49.576;11.024;2022-08-11T07:33:45;98927.19;;;23.80;36.63
72587;BME280;60621;49.576;11.024;2022-08-11T07:35:15;98926.97;;;23.74;36.57
72587;BME280;60621;49.576;11.024;2022-08-11T07:36:19;98927.00;;;24.00;35.92
72587;BME280;60621;49.576;11.024;2022-08-11T07:37:30;98929.78;;;23.96;36.48
72587;BME280;60621;49.576;11.024;2022-08-11T07:38:39;98926.44;;;23.80;36.28
72587;BME280;60621;49.576;11.024;2022-08-11T07:39:48;98928.78;;;23.77;36.60
72587;BME280;60621;49.576;11.024;2022-08-11T07:40:50;98925.69;;;23.79;36.90
72587;BME280;60621;49.576;11.024;2022-08-11T07:41:54;98928.16;;;23.86;36.66
72587;BME280;60621;49.576;11.024;2022-08-11T07:42:59;98925.28;;;23.93;36.49
72587;BME280;60621;49.576;11.024;2022-08-11T07:44:01;98918.16;;;23.99;36.00
72587;BME280;60621;49.576;11.024;2022-08-11T07:45:12;98926.47;;;24.05;36.48
72587;BME280;60621;49.576;11.024;2022-08-11T07:46:33;98927.34;;;24.15;36.29
72587;BME280;60621;49.576;11.024;2022-08-11T07:47:53;98921.22;;;24.40;35.73
72587;BME280;60621;49.576;11.024;2022-08-11T07:49:14;98927.47;;;24.62;35.52
72587;BME280;60621;49.576;11.024;2022-08-11T07:50:39;98924.44;;;24.60;35.63
72587;BME280;60621;49.576;11.024;2022-08-11T07:52:01;98930.03;;;24.78;35.43
72587;BME280;60621;49.576;11.024;2022-08-11T07:53:21;98926.09;;;24.92;35.27
72587;BME280;60621;49.576;11.024;2022-08-11T07:54:24;98926.44;;;24.82;34.23
72587;BME280;60621;49.576;11.024;2022-08-11T07:55:34;98923.75;;;24.82;34.06
72587;BME280;60621;49.576;11.024;2022-08-11T07:57:58;98927.00;;;24.64;34.67
72587;BME280;60621;49.576;11.024;2022-08-11T07:59:21;98922.72;;;24.66;34.39
72587;BME280;60621;49.576;11.024;2022-08-11T08:01:02;98919.47;;;24.71;34.10
72587;BME280;60621;49.576;11.024;2022-08-11T08:02:23;98922.03;;;24.88;33.77
72587;BME280;60621;49.576;11.024;2022-08-11T08:03:43;98914.44;;;24.95;33.63
72587;BME280;60621;49.576;11.024;2022-08-11T08:05:05;98915.06;;;25.12;33.83
72587;BME280;60621;49.576;11.024;2022-08-11T08:06:26;98914.31;;;25.12;33.99
72587;BME280;60621;49.576;11.024;2022-08-11T08:07:47;98917.06;;;25.21;33.36
72587;BME280;60621;49.576;11.024;2022-08-11T08:09:08;98916.88;;;25.15;33.42
72587;BME280;60621;49.576;11.024;2022-08-11T08:10:30;98919.75;;;25.56;32.56
72587;BME280;60621;49.576;11.024;2022-08-11T08:11:50;98923.44;;;25.49;32.73
72587;BME280;60621;49.576;11.024;2022-08-11T08:13:11;98912.69;;;25.14;32.00
72587;BME280;60621;49.576;11.024;2022-08-11T08:14:31;98917.22;;;25.39;32.13
72587;BME280;60621;49.576;11.024;2022-08-11T08:15:53;98919.78;;;25.43;31.98
72587;BME280;60621;49.576;11.024;2022-08-11T08:17:14;98918.25;;;25.54;31.93
72587;BME280;60621;49.576;11.024;2022-08-11T08:18:35;98906.78;;;25.72;31.79
72587;BME280;60621;49.576;11.024;2022-08-11T08:19:39;98904.78;;;25.64;31.10
72587;BME280;60621;49.576;11.024;2022-08-11T08:20:46;98911.00;;;25.73;29.71
72587;BME280;60621;49.576;11.024;2022-08-11T08:21:50;98915.91;;;25.66;30.55
72587;BME280;60621;49.576;11.024;2022-08-11T08:22:54;98915.41;;;25.36;31.76
72587;BME280;60621;49.576;11.024;2022-08-11T08:23:57;98917.78;;;25.34;31.73
72587;BME280;60621;49.576;11.024;2022-08-11T08:24:59;98908.28;;;25.29;31.57
72587;BME280;60621;49.576;11.024;2022-08-11T08:26:03;98902.91;;;25.51;31.25
72587;BME280;60621;49.576;11.024;2022-08-11T08:27:05;98905.34;;;25.59;31.09
72587;BME280;60621;49.576;11.024;2022-08-11T08:28:14;98905.66;;;25.39;31.47
72587;BME280;60621;49.576;11.024;2022-08-11T08:29:17;98907.50;;;25.42;31.70
72587;BME280;60621;49.576;11.024;2022-08-11T08:30:39;98913.19;;;25.66;31.20
72587;BME280;60621;49.576;11.024;2022-08-11T08:31:52;98913.97;;;25.88;30.59
72587;BME280;60621;49.576;11.024;2022-08-11T08:32:56;98905.53;;;25.86;30.79
72587;BME280;60621;49.576;11.024;2022-08-11T08:34:01;98913.06;;;25.91;31.10
72587;BME280;60621;49.576;11.024;2022-08-11T08:35:04;98912.06;;;25.98;30.54
72587;BME280;60621;49.576;11.024;2022-08-11T08:36:08;98902.91;;;26.04;30.39
72587;BME280;60621;49.576;11.024;2022-08-11T08:37:13;98905.22;;;25.84;30.43
72587;BME280;60621;49.576;11.024;2022-08-11T08:38:49;98911.47;;;26.03;29.04
72587;BME280;60621;49.576;11.024;2022-08-11T08:39:53;98906.78;;;25.72;29.48
72587;BME280;60621;49.576;11.024;2022-08-11T08:40:55;98906.16;;;25.90;29.72
72587;BME280;60621;49.576;11.024;2022-08-11T08:41:58;98905.44;;;25.99;29.51
72587;BME280;60621;49.576;11.024;2022-08-11T08:43:08;98906.16;;;25.90;29.33
72587;BME280;60621;49.576;11.024;2022-08-11T08:44:13;98903.31;;;25.94;29.98
72587;BME280;60621;49.576;11.024;2022-08-11T08:45:36;98909.34;;;25.98;29.63
72587;BME280;60621;49.576;11.024;2022-08-11T08:46:45;98907.31;;;26.11;29.28
72587;BME280;60621;49.576;11.024;2022-08-11T08:47:58;98909.25;;;26.11;28.76
72587;BME280;60621;49.576;11.024;2022-08-11T08:49:03;98911.06;;;26.14;28.33
72587;BME280;60621;49.576;11.024;2022-08-11T08:50:12;98903.25;;;26.07;28.51
72587;BME280;60621;49.576;11.024;2022-08-11T08:51:17;98907.91;;;26.15;28.14
72587;BME280;60621;49.576;11.024;2022-08-11T08:53:02;98900.38;;;26.10;27.77
72587;BME280;60621;49.576;11.024;2022-08-11T08:54:16;98900.53;;;26.07;28.35
72587;BME280;60621;49.576;11.024;2022-08-11T08:55:18;98908.44;;;26.01;28.95
72587;BME280;60621;49.576;11.024;2022-08-11T08:56:25;98910.31;;;26.13;29.16
72587;BME280;60621;49.576;11.024;2022-08-11T08:57:34;98898.47;;;26.20;28.42
72587;BME280;60621;49.576;11.024;2022-08-11T08:58:40;98918.25;;;26.08;28.31
72587;BME280;60621;49.576;11.024;2022-08-11T08:59:44;98913.84;;;26.01;28.30
72587;BME280;60621;49.576;11.024;2022-08-11T09:00:53;98905.81;;;26.19;27.72
72587;BME280;60621;49.576;11.024;2022-08-11T09:02:04;98897.69;;;26.10;28.46
72587;BME280;60621;49.576;11.024;2022-08-11T09:03:07;98903.31;;;25.94;28.65
72587;BME280;60621;49.576;11.024;2022-08-11T09:04:29;98902.78;;;26.08;28.07
72587;BME280;60621;49.576;11.024;2022-08-11T09:05:32;98901.13;;;26.11;27.96
72587;BME280;60621;49.576;11.024;2022-08-11T09:06:36;98904.41;;;26.05;28.23
72587;BME280;60621;49.576;11.024;2022-08-11T09:07:49;98905.84;;;25.88;28.51
72587;BME280;60621;49.576;11.024;2022-08-11T09:08:55;98903.78;;;25.70;28.82
72587;BME280;60621;49.576;11.024;2022-08-11T09:09:58;98905.97;;;25.85;28.88
72587;BME280;60621;49.576;11.024;2022-08-11T09:11:03;98899.91;;;26.02;28.16
72587;BME280;60621;49.576;11.024;2022-08-11T09:12:28;98900.91;;;25.96;29.04
72587;BME280;60621;49.576;11.024;2022-08-11T09:13:39;98901.59;;;26.09;29.07